Time;durP1;ratioP1;P1;durP2;ratioP2;P2;SDS_P1;SDS_P2;PMS_P1;PMS_P2;Temp;Humidity;BMP_temperature;BMP_pressure;BME280_temperature;BME280_humidity;BME280_pressure;Samples;Min_cycle;Max_cycle;Signal;HPM_P1;HPM_P2
2022/02/19 00:00:17;;;;;;;10.65;2.15;;;7.00;99.90;;;;;;5075845;28;20093;-74
2022/02/19 00:02:42;;;;;;;8.27;1.85;;;6.90;99.90;;;;;;5045249;28;20037;-73
2022/02/19 00:05:08;;;;;;;9.85;2.78;;;6.90;99.90;;;;;;5075264;28;20111;-74
2022/02/19 00:07:36;;;;;;;9.98;2.08;;;6.90;99.90;;;;;;5075328;28;20082;-73
2022/02/19 00:10:01;;;;;;;16.42;2.55;;;6.90;99.90;;;;;;5074916;28;20043;-74
2022/02/19 00:12:30;;;;;;;13.98;2.10;;;6.80;99.90;;;;;;5075047;28;20040;-73
2022/02/19 00:14:56;;;;;;;7.07;2.05;;;6.90;99.90;;;;;;5074730;28;20045;-74
2022/02/19 00:17:24;;;;;;;12.15;3.15;;;6.90;99.90;;;;;;5058488;28;20052;-75
2022/02/19 00:19:50;;;;;;;12.93;2.50;;;7.00;99.90;;;;;;5074335;28;20028;-74
2022/02/19 00:22:16;;;;;;;13.15;2.92;;;6.90;99.90;;;;;;5066108;28;20032;-74
2022/02/19 00:24:42;;;;;;;9.25;1.67;;;6.80;99.90;;;;;;5075510;28;20040;-73
2022/02/19 00:27:08;;;;;;;10.85;2.75;;;6.90;99.90;;;;;;5072953;28;20049;-74
2022/02/19 00:29:34;;;;;;;9.32;2.30;;;7.00;99.90;;;;;;5057184;28;20713;-73
2022/02/19 00:31:59;;;;;;;14.02;3.20;;;7.00;99.90;;;;;;5082247;28;20032;-74
2022/02/19 00:34:25;;;;;;;15.82;2.70;;;6.90;99.90;;;;;;5075638;28;20115;-73
2022/02/19 00:36:50;;;;;;;13.55;2.70;;;6.80;99.90;;;;;;5055793;28;20048;-74
2022/02/19 00:39:16;;;;;;;12.13;2.20;;;6.90;99.90;;;;;;5075337;28;20585;-75
2022/02/19 00:41:41;;;;;;;11.27;2.80;;;7.00;99.90;;;;;;5057055;28;20075;-74
2022/02/19 00:44:08;;;;;;;7.95;2.33;;;6.90;99.90;;;;;;5073228;28;20063;-75
2022/02/19 00:46:35;;;;;;;15.35;2.75;;;6.90;99.90;;;;;;5057778;28;20052;-74
2022/02/19 00:49:04;;;;;;;8.90;2.55;;;7.00;99.90;;;;;;5051143;28;20135;-74
2022/02/19 00:51:30;;;;;;;11.43;2.97;;;7.00;99.90;;;;;;5055408;28;20047;-73
2022/02/19 00:53:57;;;;;;;10.00;2.65;;;6.90;99.90;;;;;;5085064;28;20473;-73
2022/02/19 00:56:23;;;;;;;12.70;3.03;;;6.90;99.90;;;;;;5057524;28;20037;-74
2022/02/19 00:58:49;;;;;;;13.73;2.72;;;6.90;99.90;;;;;;5075036;28;20462;-74
2022/02/19 01:01:14;;;;;;;14.60;3.05;;;6.80;99.90;;;;;;5074029;28;20141;-73
2022/02/19 01:03:40;;;;;;;24.02;4.40;;;6.80;99.90;;;;;;5074312;28;20523;-74
2022/02/19 01:06:06;;;;;;;16.98;3.00;;;6.60;99.90;;;;;;5056981;28;20037;-74
2022/02/19 01:08:32;;;;;;;20.50;4.53;;;6.50;99.90;;;;;;5054498;28;20056;-74
2022/02/19 01:10:57;;;;;;;15.85;3.50;;;6.40;99.90;;;;;;5056563;28;20040;-75
2022/02/19 01:13:23;;;;;;;11.23;2.47;;;6.30;99.90;;;;;;5054253;28;20050;-74
2022/02/19 01:15:49;;;;;;;12.45;2.97;;;6.20;99.90;;;;;;5056766;28;20102;-74
2022/02/19 01:18:15;;;;;;;10.88;2.63;;;6.10;99.90;;;;;;5069683;28;20110;-73
2022/02/19 01:20:42;;;;;;;12.65;2.45;;;6.00;99.90;;;;;;5073550;28;20076;-75
2022/02/19 01:23:09;;;;;;;13.13;2.85;;;6.00;99.90;;;;;;5055076;28;20047;-74
2022/02/19 01:25:37;;;;;;;10.40;2.30;;;5.90;99.90;;;;;;5074469;28;20102;-74
2022/02/19 01:28:04;;;;;;;11.13;3.28;;;5.90;99.90;;;;;;5055422;28;20066;-74
2022/02/19 01:30:30;;;;;;;11.45;2.70;;;5.90;99.90;;;;;;5056250;28;20524;-74
2022/02/19 01:32:56;;;;;;;13.05;2.92;;;5.80;99.90;;;;;;5055939;28;20040;-74
2022/02/19 01:35:24;;;;;;;10.68;2.10;;;5.90;99.90;;;;;;5035897;28;20033;-73
2022/02/19 01:37:49;;;;;;;9.35;1.95;;;5.80;99.90;;;;;;5071950;28;20053;-73
2022/02/19 01:40:15;;;;;;;11.38;2.15;;;5.90;99.90;;;;;;5038407;28;20043;-74
2022/02/19 01:42:40;;;;;;;5.93;1.60;;;5.90;99.90;;;;;;5064534;28;20045;-75
2022/02/19 01:45:07;;;;;;;9.15;2.08;;;5.80;99.90;;;;;;5055366;28;20465;-75
2022/02/19 01:47:36;;;;;;;11.52;2.00;;;5.60;99.90;;;;;;5054404;28;20032;-76
2022/02/19 01:50:03;;;;;;;9.85;2.40;;;5.50;99.90;;;;;;5038761;28;20051;-74
2022/02/19 01:52:29;;;;;;;9.73;2.20;;;5.50;99.90;;;;;;5049041;28;20064;-75
2022/02/19 01:54:55;;;;;;;10.38;1.77;;;5.60;99.90;;;;;;5052972;28;20378;-75
2022/02/19 01:57:21;;;;;;;11.13;1.67;;;5.70;99.90;;;;;;5072193;28;20102;-75
2022/02/19 01:59:47;;;;;;;7.63;1.75;;;5.60;99.90;;;;;;5055697;28;20029;-73
2022/02/19 02:02:14;;;;;;;8.27;1.70;;;5.60;99.90;;;;;;5038418;28;20119;-73
2022/02/19 02:04:41;;;;;;;7.55;1.92;;;5.60;99.90;;;;;;5067362;28;20119;-74
2022/02/19 02:07:08;;;;;;;4.72;1.27;;;5.60;99.90;;;;;;5069628;28;20170;-74
2022/02/19 02:09:37;;;;;;;8.45;1.50;;;5.50;99.90;;;;;;5069108;28;20056;-74
2022/02/19 02:12:05;;;;;;;9.95;1.92;;;5.50;99.90;;;;;;5052696;28;20036;-74
2022/02/19 02:14:30;;;;;;;6.07;1.65;;;5.40;99.90;;;;;;5070761;28;20047;-73
2022/02/19 02:16:56;;;;;;;12.82;1.70;;;5.40;99.90;;;;;;5035377;28;20388;-74
2022/02/19 02:19:21;;;;;;;6.75;1.63;;;5.30;99.90;;;;;;5054261;28;20044;-73
2022/02/19 02:21:50;;;;;;;4.38;1.35;;;5.40;99.90;;;;;;5055187;28;20741;-74
2022/02/19 02:24:17;;;;;;;5.30;1.52;;;5.40;99.90;;;;;;5054165;28;20049;-73
2022/02/19 02:26:46;;;;;;;8.50;1.33;;;5.40;99.90;;;;;;5053065;28;20215;-74
2022/02/19 02:29:12;;;;;;;5.05;0.93;;;5.30;99.90;;;;;;5036526;28;20119;-75
2022/02/19 02:31:39;;;;;;;5.15;1.00;;;5.30;99.90;;;;;;5072707;28;20433;-74
2022/02/19 02:34:04;;;;;;;8.77;1.50;;;5.30;99.90;;;;;;5072115;28;20094;-73
2022/02/19 02:36:30;;;;;;;5.45;1.02;;;5.30;99.90;;;;;;5054292;28;20507;-73
2022/02/19 02:38:58;;;;;;;3.50;0.70;;;5.30;99.90;;;;;;5054035;28;20131;-74
2022/02/19 02:41:24;;;;;;;4.70;0.90;;;5.30;99.90;;;;;;5072504;28;20044;-74
2022/02/19 02:43:50;;;;;;;4.28;1.02;;;5.40;99.90;;;;;;5066470;28;20036;-74
2022/02/19 02:46:16;;;;;;;6.22;0.77;;;5.40;99.90;;;;;;5080723;28;20086;-73
2022/02/19 02:48:41;;;;;;;6.20;1.13;;;5.40;99.90;;;;;;5053950;28;20355;-74
2022/02/19 02:51:07;;;;;;;3.95;0.93;;;5.40;99.90;;;;;;5054414;28;20101;-74
2022/02/19 02:53:34;;;;;;;5.35;0.77;;;5.50;99.90;;;;;;5072069;28;20119;-73
2022/02/19 02:55:59;;;;;;;4.15;1.00;;;5.40;99.90;;;;;;5071837;28;20511;-74
2022/02/19 02:58:25;;;;;;;5.43;0.80;;;5.50;99.90;;;;;;5072226;28;20123;-74
2022/02/19 03:00:51;;;;;;;5.20;1.20;;;5.50;99.90;;;;;;5050416;28;20153;-74
2022/02/19 03:03:18;;;;;;;5.53;1.00;;;5.40;99.90;;;;;;5070974;28;20051;-74
2022/02/19 03:05:45;;;;;;;5.85;1.13;;;5.30;99.90;;;;;;5051927;28;20044;-73
2022/02/19 03:08:10;;;;;;;4.93;0.82;;;5.40;99.90;;;;;;5072184;28;20075;-74
2022/02/19 03:10:36;;;;;;;7.95;1.08;;;5.30;99.90;;;;;;5054430;28;20067;-74
2022/02/19 03:13:02;;;;;;;3.90;0.57;;;5.50;99.90;;;;;;5070602;28;20040;-74
2022/02/19 03:15:27;;;;;;;4.22;0.68;;;5.40;99.90;;;;;;5074438;28;20552;-74
2022/02/19 03:17:53;;;;;;;6.00;0.88;;;5.40;99.90;;;;;;5052664;28;20610;-74
2022/02/19 03:20:24;;;;;;;4.70;0.88;;;5.30;99.90;;;;;;5072134;28;20402;-74
2022/02/19 03:22:50;;;;;;;5.75;1.00;;;5.30;99.90;;;;;;5073000;28;20040;-73
2022/02/19 03:25:16;;;;;;;4.63;0.88;;;5.30;99.90;;;;;;5070258;28;20036;-74
2022/02/19 03:27:44;;;;;;;6.07;1.10;;;5.40;99.90;;;;;;5053125;28;20115;-74
2022/02/19 03:30:11;;;;;;;3.83;1.00;;;5.30;99.90;;;;;;5072020;28;20037;-74
2022/02/19 03:32:39;;;;;;;5.90;0.93;;;5.20;99.90;;;;;;5072005;28;20041;-75
2022/02/19 03:35:06;;;;;;;5.28;0.98;;;5.20;99.90;;;;;;5064933;28;20082;-74
2022/02/19 03:37:39;;;;;;;6.65;1.40;;;5.20;99.90;;;;;;5070341;28;20048;-74
2022/02/19 03:40:06;;;;;;;5.93;1.25;;;5.20;99.90;;;;;;5072044;28;20043;-74
2022/02/19 03:42:37;;;;;;;4.75;1.20;;;5.20;99.90;;;;;;5068910;28;20062;-74
2022/02/19 03:45:04;;;;;;;5.22;1.08;;;5.20;99.90;;;;;;5051658;28;20044;-74
2022/02/19 03:47:30;;;;;;;8.35;1.33;;;5.10;99.90;;;;;;5053386;28;20037;-73
2022/02/19 03:49:56;;;;;;;3.63;0.90;;;5.20;99.90;;;;;;5052568;28;20032;-74
2022/02/19 03:52:22;;;;;;;6.53;1.00;;;5.10;99.90;;;;;;5069888;28;20044;-74
2022/02/19 03:54:47;;;;;;;6.35;1.30;;;5.20;99.90;;;;;;5052450;28;20046;-75
2022/02/19 03:57:13;;;;;;;10.07;1.80;;;4.90;99.90;;;;;;5052534;28;20083;-75
2022/02/19 03:59:39;;;;;;;7.38;1.05;;;4.90;99.90;;;;;;5051429;28;20068;-74
2022/02/19 04:02:04;;;;;;;8.35;1.25;;;4.90;99.90;;;;;;5071017;28;20050;-73
2022/02/19 04:04:30;;;;;;;9.45;1.40;;;4.90;99.90;;;;;;5036474;28;20044;-74
2022/02/19 04:06:55;;;;;;;10.15;1.50;;;4.90;99.90;;;;;;5053051;28;20047;-74
2022/02/19 04:09:21;;;;;;;11.60;1.63;;;4.90;99.90;;;;;;5041708;28;20052;-74
2022/02/19 04:11:46;;;;;;;10.95;2.00;;;4.90;99.90;;;;;;5052731;28;20040;-74
2022/02/19 04:14:12;;;;;;;9.80;1.77;;;5.00;99.90;;;;;;5070216;28;20036;-73
2022/02/19 04:16:38;;;;;;;8.05;1.27;;;5.10;99.90;;;;;;5051626;28;20510;-74
2022/02/19 04:19:03;;;;;;;10.10;1.70;;;5.10;99.90;;;;;;5070639;28;20492;-74
2022/02/19 04:21:29;;;;;;;6.43;2.15;;;5.10;99.90;;;;;;5035982;28;20047;-73
2022/02/19 04:23:54;;;;;;;6.50;1.08;;;5.10;99.90;;;;;;5069075;28;20134;-74
2022/02/19 04:26:20;;;;;;;9.45;1.70;;;5.20;99.90;;;;;;5036652;28;20047;-74
2022/02/19 04:28:46;;;;;;;9.63;1.70;;;5.10;99.90;;;;;;5070021;28;20044;-74
2022/02/19 04:31:11;;;;;;;10.63;1.75;;;5.00;99.90;;;;;;5052695;28;20044;-73
2022/02/19 04:33:37;;;;;;;9.63;1.55;;;5.00;99.90;;;;;;5033856;28;20466;-74
2022/02/19 04:36:03;;;;;;;4.07;0.85;;;5.10;99.90;;;;;;5052226;28;20056;-73
2022/02/19 04:38:31;;;;;;;7.43;1.50;;;5.10;99.90;;;;;;5071583;28;20122;-73
2022/02/19 04:40:57;;;;;;;8.75;1.75;;;5.10;99.90;;;;;;5074466;28;20036;-73
2022/02/19 04:43:23;;;;;;;7.50;1.70;;;4.90;99.90;;;;;;5048135;28;20048;-73
2022/02/19 04:45:49;;;;;;;9.85;2.47;;;4.90;99.90;;;;;;5060201;28;20085;-75
2022/02/19 04:48:14;;;;;;;8.43;1.67;;;5.00;99.90;;;;;;5038793;28;20474;-73
2022/02/19 04:50:41;;;;;;;10.10;1.75;;;5.00;99.90;;;;;;5073570;28;20044;-73
2022/02/19 04:53:06;;;;;;;9.77;2.17;;;5.10;99.90;;;;;;5083253;28;20075;-73
2022/02/19 04:55:32;;;;;;;10.00;2.03;;;5.20;99.90;;;;;;5055643;28;20071;-72
2022/02/19 04:57:57;;;;;;;11.07;2.25;;;5.20;99.90;;;;;;5073873;28;20047;-73
2022/02/19 05:00:23;;;;;;;9.38;1.95;;;5.10;99.90;;;;;;5070415;28;20256;-72
2022/02/19 05:02:49;;;;;;;14.23;2.80;;;5.20;99.90;;;;;;5073998;28;20036;-73
2022/02/19 05:05:14;;;;;;;11.65;2.60;;;5.00;99.90;;;;;;5030241;28;20028;-73
2022/02/19 05:07:40;;;;;;;15.93;2.63;;;5.10;99.90;;;;;;5073697;28;20040;-73
2022/02/19 05:10:07;;;;;;;13.70;2.70;;;5.20;99.90;;;;;;5073570;28;20090;-72
2022/02/19 05:12:33;;;;;;;14.43;2.85;;;5.10;99.90;;;;;;5067586;28;20568;-73
2022/02/19 05:14:59;;;;;;;19.85;3.40;;;5.00;99.90;;;;;;5042266;28;20036;-72
2022/02/19 05:17:25;;;;;;;14.73;2.50;;;5.00;99.90;;;;;;5050074;28;20585;-73
2022/02/19 05:19:51;;;;;;;16.92;2.50;;;5.00;99.90;;;;;;5082499;28;20397;-73
2022/02/19 05:22:17;;;;;;;23.42;3.20;;;5.10;99.90;;;;;;5056570;28;20083;-72
2022/02/19 05:24:42;;;;;;;14.25;2.22;;;5.20;99.90;;;;;;5064028;28;20039;-73
2022/02/19 05:27:08;;;;;;;17.20;3.00;;;5.20;99.90;;;;;;5066709;28;20063;-73
2022/02/19 05:29:34;;;;;;;19.70;2.88;;;5.20;99.90;;;;;;5073332;28;20044;-73
2022/02/19 05:32:00;;;;;;;12.98;2.72;;;5.20;99.90;;;;;;5072834;28;20093;-72
2022/02/19 05:34:26;;;;;;;17.63;3.25;;;5.30;99.90;;;;;;5039550;28;20127;-73
2022/02/19 05:36:54;;;;;;;8.70;2.00;;;5.40;99.90;;;;;;5055533;28;20052;-73
2022/02/19 05:39:23;;;;;;;17.35;3.30;;;5.40;99.90;;;;;;5052445;28;20040;-72
2022/02/19 05:41:48;;;;;;;15.48;2.80;;;5.40;99.90;;;;;;5073067;28;20386;-72
2022/02/19 05:44:14;;;;;;;12.23;3.00;;;5.40;99.90;;;;;;5070679;28;20694;-73
2022/02/19 05:46:40;;;;;;;11.57;2.75;;;5.40;99.90;;;;;;5072921;28;20654;-71
2022/02/19 05:49:05;;;;;;;9.98;2.17;;;5.30;99.90;;;;;;5053909;28;20044;-72
2022/02/19 05:51:31;;;;;;;10.13;2.55;;;5.30;99.90;;;;;;5044357;28;20093;-72
2022/02/19 05:53:57;;;;;;;13.65;2.10;;;5.30;99.90;;;;;;5076286;28;20040;-73
2022/02/19 05:56:26;;;;;;;16.70;2.38;;;5.50;99.90;;;;;;5055685;28;20466;-72
2022/02/19 05:58:51;;;;;;;7.03;1.90;;;5.50;99.90;;;;;;5072969;28;20048;-73
2022/02/19 06:01:17;;;;;;;7.80;1.73;;;5.50;99.90;;;;;;5053969;28;20036;-72
2022/02/19 06:03:44;;;;;;;10.45;2.08;;;5.50;99.90;;;;;;5072666;28;20100;-73
2022/02/19 06:06:09;;;;;;;9.38;1.98;;;5.40;99.90;;;;;;5034977;28;20395;-72
2022/02/19 06:08:37;;;;;;;5.70;1.30;;;5.40;99.90;;;;;;5067031;28;20041;-72
2022/02/19 06:11:02;;;;;;;11.20;2.17;;;5.30;99.90;;;;;;5054849;28;20041;-73
2022/02/19 06:13:28;;;;;;;10.55;2.20;;;5.20;99.90;;;;;;5054573;28;20054;-73
2022/02/19 06:15:58;;;;;;;9.25;1.70;;;5.10;99.90;;;;;;5054644;28;20147;-72
2022/02/19 06:18:26;;;;;;;7.88;1.50;;;5.10;99.90;;;;;;5079339;28;20119;-72
2022/02/19 06:20:51;;;;;;;10.35;1.70;;;5.10;99.90;;;;;;5057714;28;20036;-73
2022/02/19 06:23:17;;;;;;;13.32;2.00;;;5.00;99.90;;;;;;5059549;28;20039;-73
2022/02/19 06:25:43;;;;;;;8.73;2.08;;;5.00;99.90;;;;;;5073911;28;20055;-73
2022/02/19 06:28:08;;;;;;;16.17;2.92;;;5.00;99.90;;;;;;5037886;28;20048;-73
2022/02/19 06:30:34;;;;;;;13.82;2.03;;;5.00;99.90;;;;;;5083639;28;20385;-73
2022/02/19 06:33:01;;;;;;;14.05;3.20;;;5.00;99.90;;;;;;5074919;28;20044;-73
2022/02/19 06:35:27;;;;;;;13.80;2.70;;;5.00;99.90;;;;;;5063519;28;20098;-72
2022/02/19 06:37:52;;;;;;;15.02;2.33;;;5.00;99.90;;;;;;5054411;28;20048;-73
2022/02/19 06:40:18;;;;;;;15.30;2.70;;;4.90;99.90;;;;;;5054254;28;20048;-73
2022/02/19 06:42:44;;;;;;;11.70;2.22;;;4.90;99.90;;;;;;5048511;28;20040;-73
2022/02/19 06:45:10;;;;;;;15.90;2.22;;;5.00;99.90;;;;;;5071334;28;20121;-71
2022/02/19 06:47:38;;;;;;;10.68;2.17;;;5.10;99.90;;;;;;5080074;28;20036;-72
2022/02/19 06:50:05;;;;;;;12.48;1.92;;;5.10;99.90;;;;;;5064144;28;20347;-72
2022/02/19 06:52:31;;;;;;;11.70;2.10;;;5.10;99.90;;;;;;5053986;28;20040;-72
2022/02/19 06:54:56;;;;;;;12.95;2.40;;;5.20;99.90;;;;;;5077998;28;20499;-72
2022/02/19 06:57:22;;;;;;;13.65;2.92;;;5.10;99.90;;;;;;5067611;28;20062;-72
2022/02/19 06:59:49;;;;;;;14.35;2.50;;;5.10;99.90;;;;;;5049274;28;20056;-72
2022/02/19 07:02:19;;;;;;;16.05;3.22;;;5.20;99.90;;;;;;5054293;28;20032;-73
2022/02/19 07:04:47;;;;;;;;;;;5.10;99.90;;;;;;5072798;28;20044;-73
2022/02/19 07:07:13;;;;;;;10.90;2.67;;;5.20;99.90;;;;;;5073307;28;20258;-73
2022/02/19 07:09:39;;;;;;;14.95;2.63;;;5.20;99.90;;;;;;5074564;28;20048;-73
2022/02/19 07:12:06;;;;;;;11.60;2.30;;;5.10;99.90;;;;;;5074992;28;20045;-73
2022/02/19 07:14:32;;;;;;;8.57;2.05;;;5.20;99.90;;;;;;5054179;28;20121;-72
2022/02/19 07:17:09;;;;;;;13.73;2.22;;;5.10;99.90;;;;;;5033904;28;20036;-72
2022/02/19 07:19:36;;;;;;;16.17;3.10;;;5.00;99.90;;;;;;5037124;28;20196;-74
2022/02/19 07:22:03;;;;;;;10.02;2.17;;;5.00;99.90;;;;;;5071131;28;20037;-73
2022/02/19 07:24:30;;;;;;;5.93;1.50;;;5.10;99.90;;;;;;5054236;28;20033;-72
2022/02/19 07:26:56;;;;;;;11.70;2.75;;;5.20;99.90;;;;;;5071312;28;20631;-72
2022/02/19 07:29:22;;;;;;;11.13;2.55;;;5.20;99.90;;;;;;5036273;28;20036;-72
2022/02/19 07:31:48;;;;;;;10.65;2.58;;;5.20;99.90;;;;;;5031102;28;20498;-73
2022/02/19 07:34:14;;;;;;;12.18;2.60;;;5.20;99.90;;;;;;5053194;28;20045;-73
2022/02/19 07:36:40;;;;;;;13.35;2.88;;;5.10;99.90;;;;;;5021972;28;20069;-73
2022/02/19 07:39:09;;;;;;;6.63;1.98;;;4.90;99.90;;;;;;5048109;28;20053;-73
2022/02/19 07:41:35;;;;;;;12.23;2.63;;;4.90;99.90;;;;;;5041166;28;20037;-73
2022/02/19 07:44:01;;;;;;;15.60;2.85;;;4.90;99.90;;;;;;5029895;28;20033;-73
2022/02/19 07:46:27;;;;;;;8.48;2.22;;;4.80;99.90;;;;;;5021855;28;20029;-72
2022/02/19 07:48:53;;;;;;;16.17;2.17;;;4.90;99.90;;;;;;5049630;28;20054;-72
2022/02/19 07:59:34;;;;;;;17.85;3.22;;;4.90;99.90;;;;;;5048021;28;20053;-72
2022/02/19 08:02:01;;;;;;;13.60;2.20;;;4.90;99.90;;;;;;5032768;28;20092;-73
2022/02/19 08:04:27;;;;;;;6.05;1.70;;;4.90;99.90;;;;;;5049096;28;20033;-72
2022/02/19 08:06:52;;;;;;;9.07;1.60;;;5.10;99.90;;;;;;5033645;28;20479;-73
2022/02/19 08:09:18;;;;;;;7.43;1.52;;;5.00;99.90;;;;;;5047765;28;20511;-73
2022/02/19 08:11:43;;;;;;;7.30;1.52;;;5.00;99.90;;;;;;5042630;28;20056;-72
2022/02/19 08:14:09;;;;;;;5.97;0.93;;;4.90;99.90;;;;;;5019499;28;20055;-72
2022/02/19 08:16:35;;;;;;;4.70;1.42;;;4.80;99.90;;;;;;5054639;28;20099;-73
2022/02/19 08:19:00;;;;;;;10.85;2.00;;;4.90;99.90;;;;;;5054517;28;20044;-72
2022/02/19 08:21:27;;;;;;;10.85;1.70;;;5.00;99.90;;;;;;5036798;28;20068;-73
2022/02/19 08:23:53;;;;;;;11.00;1.73;;;5.00;99.90;;;;;;5046887;28;20024;-72
2022/02/19 08:26:24;;;;;;;8.77;2.00;;;5.10;99.90;;;;;;5050058;28;20052;-73
2022/02/19 08:28:51;;;;;;;10.73;2.80;;;5.30;99.90;;;;;;5048210;28;20064;-73
2022/02/19 08:31:17;;;;;;;18.00;2.55;;;5.40;99.90;;;;;;5034688;28;20033;-73
2022/02/19 08:33:43;;;;;;;9.63;2.22;;;5.50;99.90;;;;;;5026217;28;20044;-72
2022/02/19 08:36:09;;;;;;;12.48;2.78;;;5.60;99.90;;;;;;5058281;28;20059;-73
2022/02/19 08:38:35;;;;;;;11.90;2.33;;;5.70;99.90;;;;;;5074752;28;20078;-73
2022/02/19 08:41:02;;;;;;;11.90;1.92;;;5.90;99.90;;;;;;5069151;28;20051;-73
2022/02/19 08:43:27;;;;;;;12.68;2.53;;;5.90;99.90;;;;;;5076528;28;20526;-73
2022/02/19 08:45:56;;;;;;;13.80;2.25;;;6.00;99.90;;;;;;5074434;28;20040;-74
2022/02/19 08:48:21;;;;;;;13.32;2.10;;;6.00;99.90;;;;;;5073782;28;20070;-72
2022/02/19 08:50:47;;;;;;;7.80;2.13;;;6.10;99.90;;;;;;5056227;28;20078;-72
2022/02/19 08:53:16;;;;;;;8.20;2.25;;;6.30;99.90;;;;;;5073261;28;20037;-72
2022/02/19 08:55:42;;;;;;;12.25;1.90;;;6.40;99.90;;;;;;5083322;28;20035;-73
2022/02/19 08:58:08;;;;;;;7.97;1.27;;;6.40;99.90;;;;;;5064458;28;20037;-71
2022/02/19 09:00:34;;;;;;;6.70;1.80;;;6.40;99.90;;;;;;5074499;28;20103;-73
2022/02/19 09:03:00;;;;;;;11.27;2.05;;;6.30;99.90;;;;;;5055509;28;20076;-74
2022/02/19 09:05:27;;;;;;;13.52;2.90;;;6.40;99.90;;;;;;5074166;28;20111;-73
2022/02/19 09:07:53;;;;;;;16.10;2.78;;;6.30;99.90;;;;;;5071417;28;20045;-72
2022/02/19 09:10:22;;;;;;;9.93;2.40;;;6.30;99.90;;;;;;5068124;28;20098;-73
2022/02/19 09:12:49;;;;;;;10.52;1.90;;;6.20;99.90;;;;;;5072077;28;20063;-73
2022/02/19 09:15:20;;;;;;;14.60;2.50;;;6.20;99.90;;;;;;5055206;28;20048;-72
2022/02/19 09:17:47;;;;;;;12.03;2.23;;;6.20;99.90;;;;;;5055673;28;20039;-72
2022/02/19 09:20:14;;;;;;;14.13;2.33;;;6.20;99.90;;;;;;5053732;28;20975;-73
2022/02/19 09:22:40;;;;;;;15.38;3.00;;;6.20;99.90;;;;;;5073311;28;20067;-73
2022/02/19 09:25:07;;;;;;;11.48;2.10;;;6.30;99.90;;;;;;5050292;28;20063;-73
2022/02/19 09:27:36;;;;;;;10.35;2.50;;;6.40;99.90;;;;;;5066325;28;20449;-74
2022/02/19 09:30:03;;;;;;;14.10;2.13;;;6.60;99.90;;;;;;5067964;28;20082;-72
2022/02/19 09:32:29;;;;;;;6.68;1.52;;;6.60;99.90;;;;;;5067963;28;20359;-74
2022/02/19 09:34:56;;;;;;;9.48;1.88;;;6.60;99.90;;;;;;5054170;28;20036;-73
2022/02/19 09:37:27;;;;;;;16.15;2.55;;;6.70;99.90;;;;;;5077103;28;20052;-73
2022/02/19 09:39:54;;;;;;;11.02;2.70;;;7.00;99.90;;;;;;5058643;28;20040;-74
2022/02/19 09:42:20;;;;;;;10.35;2.47;;;7.00;99.90;;;;;;5054617;28;20033;-73
2022/02/19 09:44:49;;;;;;;9.95;2.03;;;7.00;99.90;;;;;;5054484;28;20044;-74
2022/02/19 09:47:23;;;;;;;5.35;1.63;;;7.20;99.90;;;;;;5056749;28;20052;-73
2022/02/19 09:49:49;;;;;;;9.90;2.40;;;7.10;99.90;;;;;;5071873;28;20040;-73
2022/02/19 09:52:15;;;;;;;7.70;1.83;;;7.10;99.90;;;;;;5064240;22;20055;-73
2022/02/19 09:54:40;;;;;;;6.97;1.80;;;7.20;99.90;;;;;;5033414;28;20048;-73
2022/02/19 09:57:06;;;;;;;13.48;2.45;;;7.30;99.90;;;;;;5050686;28;20491;-74
2022/02/19 09:59:31;;;;;;;8.88;1.80;;;7.40;99.90;;;;;;5068889;28;20033;-73
2022/02/19 10:02:04;;;;;;;12.27;2.10;;;7.50;99.90;;;;;;5073182;28;20041;-73
2022/02/19 10:04:30;;;;;;;6.35;1.23;;;7.60;99.90;;;;;;5047558;28;20059;-74
2022/02/19 10:07:17;;;;;;;14.07;2.88;;;7.50;99.90;;;;;;5044466;28;20036;-72
2022/02/19 10:09:47;;;;;;;8.85;1.77;;;7.70;99.90;;;;;;5030126;28;20052;-74
2022/02/19 10:12:16;;;;;;;11.65;1.52;;;7.60;99.90;;;;;;5046284;28;20040;-74
2022/02/19 10:14:43;;;;;;;13.50;2.42;;;7.70;99.90;;;;;;5063986;28;20443;-72
2022/02/19 10:17:17;;;;;;;9.15;1.77;;;7.70;99.90;;;;;;5044642;28;20044;-72
2022/02/19 10:20:00;;;;;;;11.00;1.80;;;7.70;99.90;;;;;;5051408;28;20062;-72
2022/02/19 10:22:41;;;;;;;12.07;2.45;;;7.50;99.90;;;;;;5064554;28;20370;-73
2022/02/19 10:25:13;;;;;;;12.50;2.28;;;7.50;99.90;;;;;;5071124;28;20106;-73
2022/02/19 10:27:44;;;;;;;10.57;1.80;;;7.50;99.90;;;;;;5048089;28;20139;-73
2022/02/19 10:30:12;;;;;;;9.45;2.28;;;7.40;99.90;;;;;;5055543;28;20052;-73
2022/02/19 10:32:54;;;;;;;16.40;2.20;;;7.40;99.90;;;;;;5068642;28;20490;-73
2022/02/19 10:35:41;;;;;;;9.18;1.90;;;7.30;99.90;;;;;;5067851;28;20048;-73
2022/02/19 10:38:10;;;;;;;11.75;1.80;;;7.60;99.90;;;;;;5057374;28;20504;-72
2022/02/19 10:40:43;;;;;;;13.43;2.17;;;7.70;99.90;;;;;;5049654;28;20390;-73
2022/02/19 10:43:10;;;;;;;9.07;2.00;;;7.90;99.90;;;;;;5060054;28;20040;-72
2022/02/19 10:45:51;;;;;;;15.48;3.05;;;8.00;99.90;;;;;;5071442;28;20413;-72
2022/02/19 10:48:21;;;;;;;11.18;2.45;;;7.90;99.90;;;;;;5064722;28;20046;-73
2022/02/19 10:50:48;;;;;;;8.77;1.92;;;7.80;99.90;;;;;;5047754;28;20068;-73
2022/02/19 10:53:22;;;;;;;10.35;2.08;;;7.90;99.90;;;;;;5052287;28;20102;-73
2022/02/19 10:55:49;;;;;;;8.95;1.80;;;8.00;99.90;;;;;;5061115;28;20066;-72
2022/02/19 10:58:18;;;;;;;8.57;1.48;;;8.00;99.90;;;;;;5067475;28;20498;-72
2022/02/19 11:00:44;;;;;;;11.77;2.55;;;8.10;99.90;;;;;;5029698;28;20047;-72
2022/02/19 11:03:10;;;;;;;12.93;2.35;;;8.30;99.90;;;;;;5023988;28;20111;-72
2022/02/19 11:05:40;;;;;;;12.05;1.92;;;8.10;99.90;;;;;;5035464;28;20057;-73
2022/02/19 11:08:07;;;;;;;8.85;2.35;;;8.00;99.90;;;;;;5032484;28;20045;-73
2022/02/19 11:10:33;;;;;;;8.20;2.03;;;8.00;99.90;;;;;;5020578;28;20045;-73
2022/02/19 11:13:03;;;;;;;8.52;1.60;;;7.80;99.90;;;;;;5021500;28;20041;-73
2022/02/19 11:15:29;;;;;;;7.18;1.58;;;7.80;99.90;;;;;;5027192;28;20094;-73
2022/02/19 11:17:55;;;;;;;9.85;1.92;;;7.60;99.90;;;;;;5041428;28;20456;-73
2022/02/19 11:20:25;;;;;;;8.65;1.83;;;7.40;99.90;;;;;;5030681;28;20040;-73
2022/02/19 11:22:55;;;;;;;6.55;1.58;;;7.40;99.90;;;;;;5028687;28;20116;-73
2022/02/19 11:25:27;;;;;;;8.40;1.80;;;7.30;99.90;;;;;;5030656;28;20045;-74
2022/02/19 11:28:10;;;;;;;7.85;1.73;;;7.20;99.90;;;;;;5038466;28;20052;-73
2022/02/19 11:30:48;;;;;;;11.98;1.98;;;7.20;99.90;;;;;;5028630;28;20045;-73
2022/02/19 11:33:18;;;;;;;10.32;1.50;;;7.20;99.90;;;;;;5045807;28;20489;-73
2022/02/19 11:35:45;;;;;;;10.20;1.92;;;7.30;99.90;;;;;;5045005;28;20494;-74
2022/02/19 11:38:50;;;;;;;12.65;1.85;;;7.50;99.90;;;;;;5023545;28;20087;-73
2022/02/19 11:41:37;;;;;;;8.15;1.77;;;7.60;99.90;;;;;;5010853;28;20081;-73
2022/02/19 11:44:11;;;;;;;12.40;2.28;;;7.90;99.90;;;;;;5028255;28;20041;-72
2022/02/19 11:46:37;;;;;;;8.60;2.28;;;8.10;99.90;;;;;;5029927;28;20029;-71
2022/02/19 11:49:23;;;;;;;6.65;2.08;;;8.30;99.90;;;;;;5020765;28;20441;-72
2022/02/19 11:52:04;;;;;;;7.45;1.30;;;8.30;99.90;;;;;;5036808;28;20045;-72
2022/02/19 11:54:30;;;;;;;10.85;2.25;;;8.30;99.90;;;;;;5032450;28;20485;-72
2022/02/19 11:56:56;;;;;;;8.88;1.95;;;8.20;99.90;;;;;;5047622;28;20039;-72
2022/02/19 11:59:39;;;;;;;8.85;1.65;;;8.30;99.90;;;;;;5034838;28;20029;-72
2022/02/19 12:02:11;;;;;;;;;;;8.30;99.90;;;;;;5053159;28;20067;-72
2022/02/19 12:04:37;;;;;;;9.65;2.25;;;8.50;99.90;;;;;;5032946;28;19928;-71
2022/02/19 12:07:05;;;;;;;10.32;1.90;;;8.50;99.90;;;;;;5043951;28;20038;-72
2022/02/19 12:09:32;;;;;;;7.15;1.75;;;8.60;99.90;;;;;;5048769;28;20048;-72
2022/02/19 12:12:05;;;;;;;8.43;1.65;;;8.60;99.90;;;;;;5048086;28;20084;-72
2022/02/19 12:14:42;;;;;;;7.30;1.80;;;8.80;99.90;;;;;;5029344;28;20123;-72
2022/02/19 12:17:09;;;;;;;12.23;2.00;;;8.90;99.90;;;;;;5048004;28;20072;-72
2022/02/19 12:19:56;;;;;;;11.52;2.40;;;8.80;99.90;;;;;;5027874;28;20048;-72
2022/02/19 12:22:31;;;;;;;7.65;1.58;;;8.80;99.90;;;;;;5048907;28;20479;-72
2022/02/19 12:24:57;;;;;;;11.63;2.25;;;8.90;99.90;;;;;;5045120;28;20132;-73
2022/02/19 12:27:23;;;;;;;8.25;2.10;;;8.70;99.90;;;;;;5039042;28;20044;-74
2022/02/19 12:29:51;;;;;;;6.55;1.40;;;8.70;99.90;;;;;;5032980;28;20052;-72
2022/02/19 12:32:22;;;;;;;9.15;1.80;;;8.90;99.90;;;;;;5013043;28;20042;-72
2022/02/19 12:34:49;;;;;;;6.53;1.77;;;9.00;99.90;;;;;;5041320;28;20040;-73
2022/02/19 12:37:14;;;;;;;12.68;2.42;;;9.10;99.90;;;;;;5039445;28;20056;-72
2022/02/19 12:39:51;;;;;;;10.70;2.25;;;9.00;99.90;;;;;;5045361;28;20120;-73
2022/02/19 12:42:25;;;;;;;6.18;1.35;;;9.00;99.90;;;;;;5039217;28;20436;-73
2022/02/19 12:45:04;;;;;;;5.47;1.30;;;9.00;99.90;;;;;;5045948;28;20132;-72
2022/02/19 12:47:31;;;;;;;7.15;1.27;;;8.90;99.90;;;;;;5046048;28;20394;-72
2022/02/19 12:49:57;;;;;;;7.05;1.38;;;8.80;99.90;;;;;;5052714;28;20099;-73
2022/02/19 12:52:24;;;;;;;7.35;1.27;;;8.70;99.90;;;;;;5035012;28;20053;-73
2022/02/19 12:54:50;;;;;;;5.35;1.40;;;8.70;99.90;;;;;;5048095;28;20049;-72
2022/02/19 12:57:19;;;;;;;7.78;2.00;;;8.60;99.90;;;;;;5035286;28;20044;-73
2022/02/19 12:59:46;;;;;;;8.07;1.83;;;8.50;99.90;;;;;;5060619;28;20457;-73
2022/02/19 13:02:15;;;;;;;6.80;1.38;;;8.40;99.90;;;;;;5035560;28;20398;-73